Time;durP1;ratioP1;P1;durP2;ratioP2;P2;SDS_P1;SDS_P2;PMS_P1;PMS_P2;Temp;Humidity;BMP_temperature;BMP_pressure;BME280_temperature;BME280_humidity;BME280_pressure;Samples;Min_cycle;Max_cycle;Signal;HPM_P1;HPM_P2
2024/01/20 00:01:24;;;;;;;;;16.00;12.00;;;;;-1.93;98.91;100198.97;6306382;20;2791063;-47
2024/01/20 00:03:53;;;;;;;;;16.00;10.00;;;;;-2.00;98.76;100196.38;6291691;20;1841791;-48
2024/01/20 00:06:21;;;;;;;;;10.00;10.00;;;;;-2.12;99.02;100193.75;6304412;20;2768053;-47
2024/01/20 00:08:49;;;;;;;;;14.00;9.00;;;;;-1.89;98.46;100193.72;6305229;20;2761812;-45
2024/01/20 00:11:17;;;;;;;;;18.50;12.00;;;;;-2.03;98.32;100191.13;6307182;20;2795075;-45
2024/01/20 00:13:46;;;;;;;;;9.50;9.50;;;;;-2.11;99.50;100198.13;6290149;20;1818797;-46
2024/01/20 00:16:17;;;;;;;;;11.67;10.67;;;;;-2.31;100.00;100189.41;6345649;20;1813427;-45
2024/01/20 00:18:46;;;;;;;;;12.25;12.25;;;;;-1.91;100.00;100203.34;6291568;20;1818011;-47
2024/01/20 00:21:14;;;;;;;;;11.00;11.00;;;;;-2.01;99.65;100205.13;6305521;20;2780935;-47
2024/01/20 00:23:42;;;;;;;;;12.00;12.00;;;;;-1.80;100.00;100212.09;6272761;20;2780693;-47
2024/01/20 00:26:10;;;;;;;;;18.50;12.00;;;;;-1.80;99.27;100203.31;6271850;20;2786759;-45
2024/01/20 00:28:38;;;;;;;;;16.00;15.00;;;;;-1.83;98.69;100208.59;6275435;20;2808611;-46
2024/01/20 00:31:08;;;;;;;;;12.25;8.00;;;;;-1.85;99.08;100216.47;6291599;20;1837997;-46
2024/01/20 00:33:38;;;;;;;;;22.50;12.50;;;;;-1.80;98.46;100219.97;6304097;20;2803402;-45
2024/01/20 00:36:08;;;;;;;;;14.50;13.00;;;;;-1.81;97.82;100217.38;6311022;20;1819071;-46
2024/01/20 00:38:39;;;;;;;;;12.00;11.33;;;;;-2.09;99.17;100225.31;6274236;20;3507642;-46
2024/01/20 00:41:07;;;;;;;;;15.00;12.50;;;;;-1.97;98.68;100227.06;6273871;20;2791989;-49
2024/01/20 00:43:35;;;;;;;;;15.00;12.50;;;;;-2.33;99.82;100231.47;6271243;20;2795180;-45
2024/01/20 00:46:03;;;;;;;;;19.50;14.00;;;;;-2.23;100.00;100229.72;6274046;20;2819055;-45
2024/01/20 00:48:32;;;;;;;;;15.00;11.75;;;;;-2.28;99.56;100240.25;6292730;20;1825421;-45
2024/01/20 00:50:59;;;;;;;;;3.33;1.00;;;;;-2.25;100.00;100242.00;6306950;20;3448193;-46
2024/01/20 00:53:30;;;;;;;;;16.00;12.00;;;;;-2.19;99.81;100247.25;6343817;20;1819134;-48
2024/01/20 00:55:58;;;;;;;;;12.00;9.00;;;;;-2.25;100.00;100252.50;6274790;20;2772274;-46
2024/01/20 00:58:29;;;;;;;;;17.00;13.14;;;;;-2.29;99.49;100256.91;6342908;20;1823324;-48
2024/01/20 01:00:57;;;;;;;;;24.00;15.00;;;;;-2.11;98.64;100245.47;6304707;20;2815392;-48
2024/01/20 01:03:27;;;;;;;;;17.20;12.60;;;;;-1.93;98.33;100264.75;6297030;20;2820071;-49
2024/01/20 01:05:58;;;;;;;;;17.86;15.00;;;;;-1.98;98.07;100265.63;6310056;20;1821184;-46
2024/01/20 01:08:26;;;;;;;;;23.00;16.00;;;;;-2.12;97.88;100274.44;6304869;20;2823301;-47
2024/01/20 01:10:55;;;;;;;;;15.50;12.50;;;;;-1.98;97.93;100278.78;6273061;20;2801335;-48
2024/01/20 01:13:23;;;;;;;;;22.00;13.00;;;;;-2.12;98.65;100280.56;6272883;20;2785740;-46
2024/01/20 01:15:51;;;;;;;;;18.00;11.00;;;;;-2.10;99.03;100284.06;6306829;20;2781557;-48
2024/01/20 01:18:20;;;;;;;;;12.00;10.00;;;;;-2.12;98.54;100285.81;6310835;20;2783706;-49
2024/01/20 01:20:48;;;;;;;;;19.00;13.00;;;;;-2.39;99.75;100291.09;6274994;20;2793510;-50
2024/01/20 01:23:16;;;;;;;;;13.00;11.00;;;;;-2.48;100.00;100295.44;6277822;20;2787794;-51
2024/01/20 01:25:45;;;;;;;;;9.50;9.50;;;;;-2.56;100.00;100298.94;6291525;20;1825431;-47
2024/01/20 01:28:13;;;;;;;;;12.00;7.50;;;;;-2.27;100.00;100301.59;6327421;20;1835774;-45
2024/01/20 01:30:41;;;;;;;;;11.50;11.00;;;;;-2.37;100.00;100315.63;6309014;20;2780754;-47
2024/01/20 01:33:09;;;;;;;;;22.00;19.00;;;;;-2.41;100.00;100319.13;6275896;20;2826808;-47
2024/01/20 01:35:37;;;;;;;;;10.00;8.00;;;;;-2.27;100.00;100305.09;6278089;20;3445126;-48
2024/01/20 01:38:04;;;;;;;;;15.50;14.00;;;;;-2.21;100.00;100313.00;6308637;20;2789873;-46
2024/01/20 01:40:33;;;;;;;;;16.25;13.25;;;;;-2.53;100.00;100322.59;6294976;20;1828522;-46
2024/01/20 01:43:01;;;;;;;;;19.50;14.00;;;;;-2.84;100.00;100319.03;6304667;20;2805653;-47
2024/01/20 01:45:32;;;;;;;;;24.20;21.80;;;;;-2.82;100.00;100317.28;6301689;20;2833687;-45
2024/01/20 01:48:00;;;;;;;;;15.00;13.00;;;;;-2.84;100.00;100316.38;6279373;20;2812838;-47
2024/01/20 01:50:30;;;;;;;;;19.20;14.20;;;;;-2.22;100.00;100310.38;6329766;20;2799358;-47
2024/01/20 01:52:59;;;;;;;;;16.00;15.00;;;;;-2.44;100.00;100320.88;6273901;20;2812893;-50
2024/01/20 01:55:27;;;;;;;;;16.25;11.00;;;;;-2.80;100.00;100320.78;6288872;20;1825424;-46
2024/01/20 01:57:57;;;;;;;;;19.00;18.00;;;;;-3.05;100.00;100325.06;6306272;20;3550366;-48
2024/01/20 02:00:26;;;;;;;;;17.33;17.33;;;;;-3.17;100.00;100329.41;6306763;20;3566935;-45
2024/01/20 02:02:54;;;;;;;;;12.00;9.00;;;;;-2.56;100.00;100334.00;6305698;20;2776437;-48
2024/01/20 02:05:23;;;;;;;;;14.00;10.00;;;;;-2.34;100.00;100339.28;6325251;20;1821269;-45
2024/01/20 02:07:53;;;;;;;;;16.00;10.00;;;;;-2.67;100.00;100336.59;6306482;20;3504550;-44
2024/01/20 02:10:22;;;;;;;;;14.00;7.00;;;;;-2.74;100.00;100336.56;6294131;20;1832827;-44
2024/01/20 02:12:50;;;;;;;;;22.00;16.00;;;;;-3.00;100.00;100340.00;6305820;20;2830445;-45
2024/01/20 02:15:19;;;;;;;;;10.50;6.75;;;;;-3.11;100.00;100339.06;6294952;20;1837798;-46
2024/01/20 02:17:55;;;;;;;;;12.50;11.00;;;;;-3.19;100.00;100346.03;6306482;20;2786296;-48
2024/01/20 02:20:24;;;;;;;;;22.00;15.00;;;;;-2.75;100.00;100348.84;6277064;20;2802483;-46
2024/01/20 02:22:52;;;;;;;;;18.00;14.00;;;;;-2.74;100.00;100347.09;6308361;20;2787807;-45
2024/01/20 02:25:20;;;;;;;;;17.00;13.00;;;;;-2.93;100.00;100344.41;6273466;20;2816002;-46
2024/01/20 02:27:49;;;;;;;;;28.00;17.00;;;;;-3.12;100.00;100353.09;6287518;20;1846240;-46
2024/01/20 02:30:17;;;;;;;;;20.00;16.00;;;;;-2.98;100.00;100351.38;6307248;20;2820119;-47
2024/01/20 02:32:46;;;;;;;;;24.60;18.20;;;;;-2.93;100.00;100343.53;6299469;20;2827487;-46
2024/01/20 02:35:18;;;;;;;;;18.00;15.00;;;;;-3.01;100.00;100353.13;6276104;20;2812776;-46
2024/01/20 02:37:47;;;;;;;;;16.00;15.00;;;;;-3.13;100.00;100360.09;6277017;20;2801361;-46
2024/01/20 02:40:15;;;;;;;;;14.50;12.50;;;;;-3.35;100.00;100363.47;6303629;20;2788944;-48
2024/01/20 02:42:44;;;;;;;;;19.00;16.00;;;;;-3.22;100.00;100365.28;6275674;20;2823387;-45
2024/01/20 02:45:11;;;;;;;;;24.50;16.00;;;;;-3.40;100.00;100373.91;6306380;20;2818057;-46
2024/01/20 02:47:39;;;;;;;;;20.00;15.50;;;;;-3.09;100.00;100376.72;6272862;20;2825300;-46
2024/01/20 02:50:08;;;;;;;;;17.50;15.00;;;;;-3.09;100.00;100367.09;6277286;20;2789981;-45
2024/01/20 02:52:36;;;;;;;;;16.00;9.50;;;;;-3.28;100.00;100378.38;6272377;20;2797185;-46
2024/01/20 02:55:05;;;;;;;;;29.00;18.00;;;;;-3.19;100.00;100374.91;6304905;20;3580502;-50
2024/01/20 02:57:34;;;;;;;;;16.67;15.67;;;;;-3.31;100.00;100381.00;6306216;20;3560721;-48
2024/01/20 03:00:04;;;;;;;;;21.00;16.00;;;;;-3.25;100.00;100374.91;6306015;20;2709725;-44
2024/01/20 03:02:32;;;;;;;;;19.00;11.00;;;;;-3.40;100.00;100380.94;6304082;20;2810817;-45
2024/01/20 03:05:01;;;;;;;;;14.00;14.00;;;;;-3.48;100.00;100362.50;6274062;20;2779587;-45
2024/01/20 03:07:29;;;;;;;;;6.67;3.00;;;;;-3.40;100.00;100381.78;6275639;20;3463828;-48
2024/01/20 03:09:56;;;;;;;;;21.00;13.00;;;;;-3.54;100.00;100375.59;6305228;20;2799234;-46
2024/01/20 03:12:24;;;;;;;;;3.00;3.00;;;;;-3.42;100.00;100375.69;6275847;20;3475968;-46
2024/01/20 03:14:54;;;;;;;;;15.00;10.80;;;;;-3.65;100.00;100386.03;6331206;20;2786151;-46
2024/01/20 03:17:22;;;;;;;;;12.33;10.00;;;;;-3.80;100.00;100392.03;6275733;20;3518015;-46
2024/01/20 03:19:50;;;;;;;;;16.00;10.00;;;;;-3.90;100.00;100384.94;6308164;20;2785659;-46
2024/01/20 03:22:18;;;;;;;;;18.00;11.00;;;;;-3.90;100.00;100389.31;6273884;20;2801342;-46
2024/01/20 03:24:47;;;;;;;;;10.00;10.00;;;;;-3.90;100.00;100402.44;6305744;20;3493103;-46
2024/01/20 03:27:18;;;;;;;;;15.00;12.00;;;;;-4.02;100.00;100406.72;6276166;20;2785732;-47
2024/01/20 03:29:47;;;;;;;;;12.00;9.25;;;;;-3.90;100.00;100410.28;6293954;20;1830555;-46
2024/01/20 03:32:15;;;;;;;;;13.00;13.00;;;;;-4.17;100.00;100405.69;6304640;20;2787875;-47
2024/01/20 03:34:43;;;;;;;;;9.33;9.00;;;;;-4.97;100.00;100410.91;6272194;20;3484660;-48
2024/01/20 03:37:10;;;;;;;;;13.00;10.00;;;;;-5.31;100.00;100417.44;6301334;20;2789885;-47
2024/01/20 03:39:40;;;;;;;;;20.60;19.00;;;;;-5.47;100.00;100421.56;6328167;20;2837734;-46
2024/01/20 03:42:08;;;;;;;;;18.50;12.00;;;;;-5.25;100.00;100430.59;6275464;20;2790923;-47
2024/01/20 03:44:36;;;;;;;;;20.00;15.50;;;;;-4.85;100.00;100437.22;6269509;20;2826484;-48
2024/01/20 03:47:04;;;;;;;;;17.00;13.00;;;;;-4.53;100.00;100433.25;6276261;20;2796113;-46
2024/01/20 03:49:32;;;;;;;;;13.00;11.00;;;;;-4.46;100.00;100430.72;6305133;20;2785746;-54
2024/01/20 03:52:00;;;;;;;;;26.00;16.00;;;;;-4.26;100.00;100432.69;6271737;20;2820063;-47
2024/01/20 03:54:28;;;;;;;;;14.00;13.00;;;;;-4.19;100.00;100444.97;6272561;20;2784658;-52
2024/01/20 03:56:56;;;;;;;;;24.00;16.00;;;;;-4.30;100.00;100449.25;6304846;20;2844231;-52
2024/01/20 03:59:24;;;;;;;;;22.00;15.50;;;;;-4.00;100.00;100461.81;6303634;20;2807572;-53
2024/01/20 04:01:52;;;;;;;;;22.00;16.00;;;;;-4.02;100.00;100463.53;6276416;20;2810727;-52
2024/01/20 04:04:21;;;;;;;;;27.00;18.00;;;;;-3.93;100.00;100468.84;6270384;20;3603444;-52
2024/01/20 04:06:49;;;;;;;;;23.00;15.00;;;;;-4.16;100.00;100463.41;6271132;20;2814850;-52
2024/01/20 04:09:17;;;;;;;;;20.00;13.00;;;;;-4.09;100.00;100461.69;6274821;20;2801346;-53
2024/01/20 04:11:45;;;;;;;;;12.50;9.50;;;;;-4.24;100.00;100463.31;6303854;20;2774489;-53
2024/01/20 04:14:13;;;;;;;;;15.00;13.00;;;;;-4.88;100.00;100473.00;6302669;20;2794052;-52
2024/01/20 04:16:41;;;;;;;;;17.00;12.25;;;;;-5.22;100.00;100471.63;6319295;20;1827979;-52
2024/01/20 04:19:10;;;;;;;;;14.00;10.50;;;;;-4.97;100.00;100467.66;6323382;20;1835824;-54
2024/01/20 04:21:39;;;;;;;;;19.00;12.50;;;;;-5.12;100.00;100463.94;6306750;20;2802401;-51
2024/01/20 04:24:07;;;;;;;;;21.00;10.00;;;;;-4.99;100.00;100479.81;6271574;20;2812856;-54
2024/01/20 04:26:36;;;;;;;;;15.25;10.00;;;;;-4.86;100.00;100476.50;6323319;20;1829263;-46
2024/01/20 04:29:04;;;;;;;;;12.50;12.00;;;;;-4.58;100.00;100471.63;6303556;20;2795200;-47
2024/01/20 04:31:32;;;;;;;;;18.00;15.00;;;;;-4.75;100.00;100466.19;6274023;20;2807603;-46
2024/01/20 04:34:00;;;;;;;;;13.00;9.50;;;;;-4.74;100.00;100476.69;6319952;20;1834884;-52
2024/01/20 04:36:29;;;;;;;;;12.25;11.50;;;;;-4.79;100.00;100482.69;6320962;20;1835726;-52
2024/01/20 04:38:57;;;;;;;;;20.00;13.00;;;;;-4.78;100.00;100482.72;6305723;20;2807590;-52
2024/01/20 04:41:28;;;;;;;;;18.00;12.83;;;;;-5.13;100.00;100483.13;6311029;20;1823323;-53
2024/01/20 04:43:56;;;;;;;;;18.50;13.00;;;;;-4.98;100.00;100486.81;6273759;20;2798262;-51
2024/01/20 04:46:26;;;;;;;;;19.00;12.50;;;;;-4.93;100.00;100487.75;6310584;20;1829479;-53
2024/01/20 04:48:54;;;;;;;;;18.00;16.00;;;;;-4.98;100.00;100487.69;6276734;20;2834702;-50
2024/01/20 04:51:24;;;;;;;;;10.00;10.00;;;;;-4.98;100.00;100481.56;6295964;20;1842936;-53
2024/01/20 04:53:52;;;;;;;;;13.00;13.00;;;;;-4.80;100.00;100492.31;6310446;20;2787832;-53
2024/01/20 04:56:22;;;;;;;;;13.00;13.00;;;;;-5.36;100.00;100494.97;6310407;20;2781475;-52
2024/01/20 04:58:53;;;;;;;;;21.20;15.60;;;;;-5.09;100.00;100500.63;6334484;20;2818031;-54
2024/01/20 05:01:22;;;;;;;;;17.00;15.00;;;;;-4.91;100.00;100510.50;6279647;20;2826349;-48
2024/01/20 05:03:50;;;;;;;;;16.00;10.00;;;;;-5.20;100.00;100507.44;6276993;20;2805522;-49
2024/01/20 05:06:18;;;;;;;;;19.00;15.00;;;;;-5.07;100.00;100509.38;6309010;20;2799254;-49
2024/01/20 05:08:47;;;;;;;;;15.25;11.50;;;;;-5.16;100.00;100514.50;6328381;20;1844265;-47
2024/01/20 05:11:15;;;;;;;;;20.00;14.00;;;;;-5.13;100.00;100514.53;6310491;20;2811768;-47
2024/01/20 05:13:43;;;;;;;;;13.00;13.00;;;;;-5.12;100.00;100516.28;6277906;20;2810706;-49
2024/01/20 05:16:11;;;;;;;;;19.00;13.00;;;;;-5.10;100.00;100532.91;6279116;20;2814963;-47
2024/01/20 05:18:42;;;;;;;;;21.83;13.33;;;;;-5.07;100.00;100532.06;6313948;20;1839983;-46
2024/01/20 05:21:16;;;;;;;;;11.00;11.00;;;;;-5.31;100.00;100528.22;6280248;20;2798264;-46
2024/01/20 05:23:46;;;;;;;;;21.67;20.33;;;;;-5.04;100.00;100536.47;6273709;20;3582317;-48
2024/01/20 05:26:14;;;;;;;;;18.00;15.00;;;;;-5.23;100.00;100536.19;6308808;20;2687798;-47
2024/01/20 05:28:44;;;;;;;;;18.20;17.00;;;;;-5.44;100.00;100533.22;6297685;20;2833722;-52
2024/01/20 05:31:14;;;;;;;;;20.20;12.20;;;;;-5.17;100.00;100538.03;6304711;20;2814903;-49
2024/01/20 05:33:44;;;;;;;;;27.33;22.00;;;;;-5.25;100.00;100540.50;6301619;20;2831578;-52
2024/01/20 05:36:13;;;;;;;;;30.67;28.00;;;;;-5.28;100.00;100548.31;6309588;20;3600287;-52
2024/01/20 05:38:42;;;;;;;;;95.67;62.67;;;;;-5.14;100.00;100554.66;6274623;20;3663969;-47
2024/01/20 05:41:12;;;;;;;;;62.00;46.00;;;;;-5.15;100.00;100563.38;6309861;20;3646227;-49
2024/01/20 05:43:42;;;;;;;;;48.33;38.00;;;;;-4.64;100.00;100572.84;6308506;20;2879456;-54
2024/01/20 05:46:10;;;;;;;;;51.00;39.50;;;;;-5.41;100.00;100575.13;6306763;20;2879578;-54
2024/01/20 05:48:38;;;;;;;;;47.00;27.50;;;;;-5.07;100.00;100577.47;6273088;20;2502345;-50
2024/01/20 05:51:07;;;;;;;;;49.00;29.67;;;;;-4.92;100.00;100570.72;6274052;20;3631566;-53
2024/01/20 05:53:37;;;;;;;;;62.33;45.17;;;;;-4.73;100.00;100580.59;6274187;20;3642305;-51
2024/01/20 05:56:06;;;;;;;;;68.50;49.00;;;;;-4.81;100.00;100579.59;6307091;20;2877448;-55
2024/01/20 05:58:35;;;;;;;;;54.00;48.00;;;;;-4.69;100.00;100589.38;6273496;20;2888646;-53
2024/01/20 06:01:04;;;;;;;;;56.00;41.00;;;;;-4.64;100.00;100588.56;6274960;20;2895128;-53
2024/01/20 06:03:34;;;;;;;;;62.33;44.00;;;;;-5.13;100.00;100593.06;6276607;20;3637823;-53
2024/01/20 06:06:01;;;;;;;;;36.00;33.00;;;;;-4.70;100.00;100593.75;6306635;20;2502443;-52
2024/01/20 06:08:31;;;;;;;;;50.33;33.33;;;;;-5.01;100.00;100596.75;6276418;20;2889904;-52
2024/01/20 06:11:01;;;;;;;;;49.67;39.67;;;;;-4.31;100.00;100607.41;6309152;20;2878459;-54
2024/01/20 06:13:30;;;;;;;;;51.00;39.67;;;;;-4.59;100.00;100612.22;6306753;20;2884618;-51
2024/01/20 06:16:00;;;;;;;;;63.67;45.00;;;;;-4.34;100.00;100618.72;6305226;20;3659594;-50
2024/01/20 06:18:29;;;;;;;;;58.50;46.50;;;;;-4.24;100.00;100624.94;6309022;20;2882569;-51
2024/01/20 06:21:01;;;;;;;;;68.67;52.00;;;;;-4.23;100.00;100632.84;6275597;20;2888964;-52
2024/01/20 06:23:29;;;;;;;;;73.00;55.00;;;;;-4.41;100.00;100635.22;6307928;20;2860849;-50
2024/01/20 06:25:59;;;;;;;;;72.00;52.00;;;;;-4.81;100.00;100644.22;6276292;20;2894042;-53
2024/01/20 06:28:28;;;;;;;;;70.00;51.50;;;;;-5.32;100.00;100635.47;6303249;20;2883720;-53
2024/01/20 06:30:57;;;;;;;;;69.00;51.00;;;;;-5.36;100.00;100647.63;6275564;20;2879459;-54
2024/01/20 06:33:26;;;;;;;;;76.00;54.50;;;;;-5.55;100.00;100651.66;6276559;20;2893015;-54
2024/01/20 06:35:55;;;;;;;;;71.00;53.00;;;;;-5.59;100.00;100654.16;6277224;20;2872250;-53
2024/01/20 06:38:25;;;;;;;;;70.33;51.67;;;;;-5.57;100.00;100662.94;6277467;20;2896154;-51
2024/01/20 06:40:52;;;;;;;;;65.50;49.00;;;;;-5.33;100.00;100665.13;6305080;20;2495672;-54
2024/01/20 06:43:21;;;;;;;;;65.00;48.00;;;;;-5.46;100.00;100661.41;6275927;20;2877372;-54
2024/01/20 06:45:49;;;;;;;;;71.00;52.00;;;;;-5.42;100.00;100668.47;6273544;20;2879422;-51
2024/01/20 06:48:17;;;;;;;;;63.00;48.00;;;;;-5.01;100.00;100670.94;6275826;20;2505518;-49
2024/01/20 06:50:46;;;;;;;;;62.00;46.00;;;;;-4.43;100.00;100681.47;6276407;20;2874232;-51
2024/01/20 06:53:14;;;;;;;;;68.00;49.00;;;;;-3.65;100.00;100684.31;6272022;20;2880495;-51
2024/01/20 06:55:44;;;;;;;;;73.33;49.00;;;;;-3.65;100.00;100684.31;6276515;20;2885766;-53
2024/01/20 06:58:12;;;;;;;;;40.00;37.00;;;;;-5.45;100.00;100675.34;6305536;20;2506527;-52
2024/01/20 07:00:41;;;;;;;;;52.00;42.00;;;;;-5.71;100.00;100680.06;6275283;20;3634685;-54
2024/01/20 07:03:10;;;;;;;;;44.00;39.50;;;;;-5.64;100.00;100682.84;6307113;20;2870138;-53
2024/01/20 07:05:39;;;;;;;;;42.67;36.00;;;;;-5.25;100.00;100687.09;6276968;20;3597139;-54
2024/01/20 07:08:10;;;;;;;;;69.40;52.80;;;;;-4.05;100.00;100699.53;6275213;20;3630505;-53
2024/01/20 07:10:38;;;;;;;;;62.00;49.00;;;;;-2.92;97.84;100699.97;6271249;20;2502380;-51
2024/01/20 07:13:07;;;;;;;;;82.00;60.33;;;;;-2.77;92.80;100705.34;6276806;20;2893884;-51
2024/01/20 07:15:38;;;;;;;;;79.00;57.33;;;;;-2.04;91.10;100709.41;6300718;20;2885754;-49
2024/01/20 07:18:07;;;;;;;;;74.00;60.00;;;;;-1.96;89.38;100720.00;6302674;20;2502452;-46
2024/01/20 07:20:36;;;;;;;;;80.00;60.00;;;;;-1.81;90.02;100718.31;6275731;20;2883685;-48
2024/01/20 07:23:04;;;;;;;;;75.50;57.50;;;;;-2.26;92.50;100721.56;6272338;20;2862981;-48
2024/01/20 07:25:36;;;;;;;;;67.50;56.00;;;;;-1.67;95.17;100721.03;6272085;20;2502576;-48
2024/01/20 07:28:05;;;;;;;;;60.00;45.50;;;;;-0.16;83.95;100726.56;6273144;20;2872202;-47
2024/01/20 07:30:33;;;;;;;;;36.00;33.50;;;;;-1.95;90.39;100729.63;6271421;20;2502679;-49
2024/01/20 07:33:02;;;;;;;;;46.00;33.00;;;;;-2.17;94.52;100726.00;6273416;20;2875282;-52
2024/01/20 07:35:30;;;;;;;;;31.50;27.50;;;;;-2.38;97.80;100729.34;6271906;20;2502373;-50
2024/01/20 07:37:58;;;;;;;;;46.00;40.00;;;;;-2.27;98.34;100733.81;6271193;20;2500386;-53
2024/01/20 07:40:28;;;;;;;;;71.67;52.00;;;;;-2.18;98.57;100743.53;6273783;20;2885736;-48
2024/01/20 07:42:57;;;;;;;;;77.33;50.33;;;;;-2.06;99.78;100743.59;6305906;20;3647148;-48
2024/01/20 07:45:27;;;;;;;;;74.00;59.00;;;;;-1.82;98.63;100732.38;6299849;20;2500363;-50
2024/01/20 07:47:57;;;;;;;;;84.67;61.33;;;;;-1.87;98.75;100733.19;6275805;20;2891991;-51
2024/01/20 07:50:28;;;;;;;;;78.00;57.00;;;;;-1.63;96.27;100738.59;6305483;20;2888853;-53
2024/01/20 07:52:57;;;;;;;;;64.00;48.50;;;;;-1.29;95.97;100737.84;6302262;20;2470138;-53
2024/01/20 07:55:25;;;;;;;;;87.00;68.00;;;;;-1.19;94.29;100756.31;6268960;20;2504503;-46
2024/01/20 07:57:55;;;;;;;;;172.00;143.50;;;;;-1.31;94.98;100761.56;6259648;20;3727366;-47
2024/01/20 08:00:26;;;;;;;;;154.25;132.50;;;;;-1.25;96.11;100756.31;6267344;20;4501354;-46
2024/01/20 08:02:57;;;;;;;;;164.00;135.00;;;;;-0.91;93.08;100757.31;6272707;20;3730712;-48
2024/01/20 08:05:26;;;;;;;;;127.00;97.33;;;;;-0.94;93.88;100761.69;6272186;20;3699222;-47
2024/01/20 08:07:55;;;;;;;;;99.00;73.00;;;;;-0.87;94.02;100758.19;6268238;20;3676390;-49
2024/01/20 08:10:25;;;;;;;;;87.33;63.00;;;;;-0.65;93.08;100768.78;6305995;20;3652367;-46
2024/01/20 08:12:55;;;;;;;;;79.00;60.00;;;;;-0.73;93.80;100774.91;6305806;20;2875382;-46
2024/01/20 08:15:23;;;;;;;;;81.00;62.00;;;;;-0.78;94.99;100765.25;6267155;20;2500283;-47
2024/01/20 08:17:52;;;;;;;;;79.00;61.00;;;;;-0.52;92.20;100770.56;6273317;20;2873237;-47
2024/01/20 08:20:21;;;;;;;;;87.00;62.00;;;;;-0.45;92.19;100772.31;6272969;20;3658703;-47
2024/01/20 08:22:51;;;;;;;;;87.67;66.00;;;;;-0.27;90.90;100776.72;6300938;20;3653481;-46
2024/01/20 08:25:21;;;;;;;;;83.67;66.33;;;;;-0.51;92.36;100785.50;6302228;20;2879399;-48
2024/01/20 08:27:51;;;;;;;;;98.00;75.00;;;;;-0.19;93.63;100790.78;6304101;20;3651401;-45
2024/01/20 08:30:21;;;;;;;;;89.33;67.67;;;;;-0.12;92.06;100796.97;6304169;20;2895121;-47
2024/01/20 08:32:50;;;;;;;;;88.67;65.67;;;;;0.36;89.83;100800.44;6303909;20;3649174;-46
2024/01/20 08:35:20;;;;;;;;;76.67;55.33;;;;;-0.23;91.26;100796.97;6304251;20;2892029;-49
2024/01/20 08:37:48;;;;;;;;;18.50;4.00;;;;;0.25;89.37;100796.94;6306023;20;2787788;-49
2024/01/20 08:40:17;;;;;;;;;70.00;57.00;;;;;0.37;88.88;100800.44;6299445;20;2854544;-44
2024/01/20 08:42:46;;;;;;;;;78.50;58.50;;;;;0.72;87.21;100803.88;6271993;20;2893102;-44
2024/01/20 08:45:16;;;;;;;;;78.33;60.67;;;;;0.91;86.02;100802.03;6272400;20;2881634;-46
2024/01/20 08:47:45;;;;;;;;;81.00;61.33;;;;;1.10;84.82;100798.41;6304795;20;2880718;-47
2024/01/20 08:50:15;;;;;;;;;80.33;58.00;;;;;1.10;84.64;100803.69;6300663;20;3642039;-45
2024/01/20 08:52:45;;;;;;;;;105.33;81.67;;;;;0.60;85.83;100804.78;6306796;20;3686806;-45
2024/01/20 08:55:15;;;;;;;;;93.67;68.33;;;;;0.98;85.60;100806.41;6272269;20;3643002;-46
2024/01/20 08:57:44;;;;;;;;;92.00;69.67;;;;;1.16;82.94;100802.78;6301532;20;3641925;-50
2024/01/20 09:00:16;;;;;;;;;117.75;92.25;;;;;1.16;84.49;100816.91;6302741;20;3705526;-49
2024/01/20 09:02:46;;;;;;;;;86.00;61.00;;;;;1.19;84.06;100805.44;6270039;20;3664954;-48
2024/01/20 09:05:17;;;;;;;;;87.33;65.67;;;;;1.14;85.04;100820.44;6306167;20;3654468;-46
2024/01/20 09:07:46;;;;;;;;;88.00;63.00;;;;;1.19;83.09;100818.66;6301970;20;2560775;-49
2024/01/20 09:10:15;;;;;;;;;89.00;64.33;;;;;1.27;84.25;100814.22;6272451;20;3660697;-49
2024/01/20 09:12:45;;;;;;;;;82.33;59.67;;;;;1.51;82.20;100819.34;6304771;20;2889948;-48
2024/01/20 09:15:15;;;;;;;;;82.00;59.67;;;;;1.42;82.22;100811.47;6305021;20;2877389;-49
2024/01/20 09:17:44;;;;;;;;;70.50;57.00;;;;;1.13;82.55;100811.59;6301409;20;2867968;-49
2024/01/20 09:20:13;;;;;;;;;63.00;49.00;;;;;1.21;82.56;100801.00;6272223;20;2856579;-49
2024/01/20 09:22:41;;;;;;;;;41.00;33.00;;;;;1.32;82.92;100801.84;6275334;20;2862773;-48
2024/01/20 09:25:11;;;;;;;;;40.00;31.00;;;;;1.65;82.53;100805.13;6274331;20;2854471;-50
2024/01/20 09:27:39;;;;;;;;;61.00;47.00;;;;;1.47;84.05;100796.41;6271218;20;2492980;-49
2024/01/20 09:30:08;;;;;;;;;62.00;44.00;;;;;1.70;83.81;100803.34;6266720;20;2493062;-47
2024/01/20 09:32:37;;;;;;;;;48.33;40.00;;;;;1.63;85.42;100804.25;6274201;20;2861213;-46
2024/01/20 09:35:06;;;;;;;;;63.00;46.50;;;;;2.03;81.76;100802.19;6301973;20;2487999;-46
2024/01/20 09:37:38;;;;;;;;;59.50;42.00;;;;;1.98;81.60;100793.41;6279427;20;2877505;-46
2024/01/20 09:40:07;;;;;;;;;57.50;45.50;;;;;1.82;83.36;100808.56;6273916;20;2488321;-46
2024/01/20 09:42:35;;;;;;;;;60.00;48.00;;;;;1.60;83.42;100799.00;6276275;20;2493143;-46
2024/01/20 09:45:06;;;;;;;;;55.50;47.50;;;;;2.08;82.06;100803.03;6278057;20;2854472;-46
2024/01/20 09:47:36;;;;;;;;;61.33;46.33;;;;;2.39;80.86;100800.94;6279540;20;2882592;-45
2024/01/20 09:50:06;;;;;;;;;60.50;48.00;;;;;2.66;80.97;100801.56;6310566;20;2857978;-46
2024/01/20 09:52:58;;;;;;;;;54.67;43.33;;;;;2.33;80.45;100790.41;6278788;20;2861769;-48
2024/01/20 09:55:27;;;;;;;;;54.50;42.50;;;;;2.29;82.42;100799.31;6309971;20;2865979;-46
2024/01/20 09:57:56;;;;;;;;;60.50;46.50;;;;;2.36;83.13;100794.81;6275621;20;2492069;-45
2024/01/20 10:00:26;;;;;;;;;58.50;43.00;;;;;2.50;82.44;100803.53;6276799;20;2872151;-49
2024/01/20 10:02:55;;;;;;;;;65.00;50.50;;;;;2.38;84.05;100808.94;6274981;20;2871088;-45
2024/01/20 10:05:24;;;;;;;;;59.50;47.00;;;;;2.78;80.99;100809.38;6275209;20;2845186;-46
2024/01/20 10:07:54;;;;;;;;;63.67;46.33;;;;;3.17;79.66;100809.78;6274636;20;2876386;-45
2024/01/20 10:10:23;;;;;;;;;42.00;36.50;;;;;2.57;80.48;100806.97;6305301;20;2845310;-44
2024/01/20 10:12:54;;;;;;;;;42.50;34.50;;;;;2.66;81.06;100801.56;6275746;20;2864848;-44
2024/01/20 10:15:28;;;;;;;;;25.50;25.50;;;;;2.67;78.50;100798.03;6274291;20;2856589;-48
2024/01/20 10:18:10;;;;;;;;;38.00;31.00;;;;;3.06;76.29;100793.13;6271805;20;2500268;-46
2024/01/20 10:20:41;;;;;;;;;47.00;37.67;;;;;3.17;77.36;100790.34;6272257;20;2867048;-45
2024/01/20 10:23:12;;;;;;;;;37.67;33.33;;;;;3.37;76.15;100785.63;6309426;20;2872306;-47
2024/01/20 10:25:43;;;;;;;;;51.67;40.67;;;;;3.06;78.62;100782.53;6308668;20;3614851;-45
2024/01/20 10:28:13;;;;;;;;;48.33;36.00;;;;;3.09;78.39;100798.41;6308145;20;3621084;-45
2024/01/20 10:30:42;;;;;;;;;44.00;37.67;;;;;3.40;77.50;100798.84;6309050;20;2853403;-46
2024/01/20 10:33:12;;;;;;;;;50.50;40.50;;;;;3.14;77.41;100804.53;6309513;20;2870072;-45
2024/01/20 10:35:42;;;;;;;;;42.33;33.00;;;;;3.09;79.82;100798.41;6276404;20;3626385;-47
2024/01/20 10:38:14;;;;;;;;;38.00;35.00;;;;;2.76;80.23;100802.31;6308167;20;2858689;-46
2024/01/20 10:40:45;;;;;;;;;44.50;42.00;;;;;2.67;81.51;100800.66;6273682;20;2844250;-46
2024/01/20 10:43:16;;;;;;;;;55.00;42.00;;;;;2.92;83.95;100803.03;6275937;20;2877405;-46
2024/01/20 10:46:11;;;;;;;;;38.50;33.50;;;;;3.13;81.89;100799.22;6305716;20;2859655;-44
2024/01/20 10:48:49;;;;;;;;;32.00;24.00;;;;;3.17;78.53;100801.81;6273704;20;2500428;-44
2024/01/20 10:51:27;;;;;;;;;36.00;30.00;;;;;2.88;82.41;100799.53;6271348;20;2500336;-47
2024/01/20 10:53:58;;;;;;;;;41.33;33.33;;;;;2.86;82.83;100799.53;6271337;20;2878651;-45
2024/01/20 10:56:27;;;;;;;;;37.00;33.00;;;;;3.24;79.65;100798.19;6308948;20;2853452;-46
2024/01/20 10:59:15;;;;;;;;;40.00;30.00;;;;;3.37;79.58;100795.34;6274699;20;2873312;-46
2024/01/20 11:01:45;;;;;;;;;35.00;35.00;;;;;2.96;79.99;100802.09;6272172;20;2856524;-46